Time;durP1;ratioP1;P1;durP2;ratioP2;P2;SDS_P1;SDS_P2;PMS_P1;PMS_P2;Temp;Humidity;BMP_temperature;BMP_pressure;BME280_temperature;BME280_humidity;BME280_pressure;Samples;Min_cycle;Max_cycle;Signal;HPM_P1;HPM_P2
2021/09/16 00:01:19;;;;;;;5.63;4.88;;;16.60;78.80;;;;;;4991284;28;20190;-74
2021/09/16 00:03:44;;;;;;;4.60;4.20;;;16.50;79.00;;;;;;4996457;28;20700;-73
2021/09/16 00:06:10;;;;;;;3.85;3.55;;;16.50;79.10;;;;;;4993211;28;20921;-73
2021/09/16 00:08:36;;;;;;;4.82;4.13;;;16.50;78.80;;;;;;4989511;28;20558;-73
2021/09/16 00:11:03;;;;;;;5.50;5.05;;;16.50;78.80;;;;;;4995748;28;20201;-73
2021/09/16 00:13:29;;;;;;;6.38;4.50;;;16.50;78.90;;;;;;4991204;28;20185;-73
2021/09/16 00:15:55;;;;;;;7.10;4.10;;;16.50;78.80;;;;;;4992639;28;20211;-73
2021/09/16 00:18:23;;;;;;;4.15;3.80;;;16.40;78.70;;;;;;4994615;28;20180;-73
2021/09/16 00:20:49;;;;;;;4.47;4.18;;;16.40;78.60;;;;;;4991050;28;20197;-73
2021/09/16 00:23:15;;;;;;;4.03;3.72;;;16.40;78.90;;;;;;4991813;28;20196;-73
2021/09/16 00:25:41;;;;;;;6.32;3.90;;;16.40;79.00;;;;;;4988991;28;20194;-74
2021/09/16 00:28:07;;;;;;;6.40;4.10;;;16.40;78.80;;;;;;4991645;28;20288;-74
2021/09/16 00:30:33;;;;;;;4.22;3.92;;;16.40;78.30;;;;;;4997775;28;20727;-74
2021/09/16 00:32:59;;;;;;;4.20;3.85;;;16.40;79.30;;;;;;4991208;28;20193;-74
2021/09/16 00:35:25;;;;;;;4.07;3.72;;;16.30;79.20;;;;;;4994582;28;20600;-74
2021/09/16 00:37:51;;;;;;;3.72;3.42;;;16.30;79.30;;;;;;4986058;28;20188;-73
2021/09/16 00:40:17;;;;;;;4.43;4.07;;;16.30;79.50;;;;;;4992313;28;20644;-74
2021/09/16 00:42:44;;;;;;;4.30;3.80;;;16.20;79.70;;;;;;4989317;28;20267;-73
2021/09/16 00:45:10;;;;;;;4.50;4.07;;;16.20;79.80;;;;;;4999384;28;20243;-73
2021/09/16 00:47:38;;;;;;;4.32;4.03;;;16.10;79.90;;;;;;4997092;28;20182;-74
2021/09/16 00:50:05;;;;;;;3.88;3.58;;;16.10;79.70;;;;;;4997778;28;20268;-74
2021/09/16 00:52:33;;;;;;;4.18;3.83;;;16.00;79.70;;;;;;4990643;28;20266;-74
2021/09/16 00:55:01;;;;;;;4.75;4.35;;;16.00;79.30;;;;;;4989097;28;20192;-74
2021/09/16 00:57:29;;;;;;;4.82;4.10;;;16.00;79.60;;;;;;4992686;28;20187;-75
2021/09/16 00:59:56;;;;;;;5.07;3.75;;;16.00;79.50;;;;;;4990069;28;20212;-74
2021/09/16 01:02:21;;;;;;;4.45;4.10;;;16.00;79.70;;;;;;4997513;28;20193;-73
2021/09/16 01:04:47;;;;;;;4.75;4.35;;;16.00;79.70;;;;;;4995973;28;20176;-72
2021/09/16 01:07:14;;;;;;;4.28;3.97;;;15.90;80.40;;;;;;4990084;28;20312;-74
2021/09/16 01:09:42;;;;;;;3.60;3.40;;;15.90;79.80;;;;;;4989520;28;20193;-74
2021/09/16 01:12:07;;;;;;;3.58;3.38;;;15.80;79.70;;;;;;4990487;28;20205;-74
2021/09/16 01:14:33;;;;;;;9.55;4.10;;;15.80;79.80;;;;;;4987884;28;20762;-73
2021/09/16 01:17:00;;;;;;;4.05;3.72;;;15.80;79.80;;;;;;4991865;28;20608;-73
2021/09/16 01:19:27;;;;;;;3.90;3.70;;;15.80;79.70;;;;;;4985895;28;20182;-73
2021/09/16 01:21:53;;;;;;;3.83;3.58;;;15.80;80.30;;;;;;4990303;28;20300;-74
2021/09/16 01:24:18;;;;;;;5.50;4.07;;;15.80;80.10;;;;;;4987905;28;21386;-74
2021/09/16 01:26:45;;;;;;;3.92;3.72;;;15.80;80.30;;;;;;4995290;28;20576;-74
2021/09/16 01:29:12;;;;;;;3.88;3.67;;;15.70;80.10;;;;;;4988416;28;20185;-73
2021/09/16 01:31:39;;;;;;;3.38;3.17;;;15.70;80.40;;;;;;4985971;28;20852;-74
2021/09/16 01:34:08;;;;;;;4.65;3.55;;;15.70;80.00;;;;;;4991962;28;20670;-73
2021/09/16 01:36:34;;;;;;;3.72;3.53;;;15.70;80.20;;;;;;4992739;28;20270;-73
2021/09/16 01:39:03;;;;;;;6.00;4.35;;;15.60;80.10;;;;;;4984557;28;20239;-73
2021/09/16 01:41:29;;;;;;;4.00;3.78;;;15.60;80.30;;;;;;4993411;28;20177;-74
2021/09/16 01:43:55;;;;;;;3.40;3.20;;;15.60;80.40;;;;;;4986935;28;20182;-74
2021/09/16 01:46:21;;;;;;;4.25;3.83;;;15.60;81.20;;;;;;4988639;28;20240;-73
2021/09/16 01:48:46;;;;;;;3.10;3.00;;;15.50;80.80;;;;;;4995108;28;20178;-73
2021/09/16 01:51:12;;;;;;;3.83;3.53;;;15.50;80.90;;;;;;4988859;28;20652;-73
2021/09/16 01:53:38;;;;;;;3.35;3.15;;;15.50;81.10;;;;;;4992428;28;20181;-73
2021/09/16 01:56:04;;;;;;;4.38;3.40;;;15.50;81.30;;;;;;4991304;28;20217;-74
2021/09/16 01:58:30;;;;;;;4.50;4.10;;;15.40;81.30;;;;;;4994718;28;20185;-74
2021/09/16 02:00:57;;;;;;;4.20;3.83;;;15.40;81.80;;;;;;4996427;28;20308;-74
2021/09/16 02:03:23;;;;;;;4.88;4.07;;;15.30;81.50;;;;;;4988782;28;20185;-74
2021/09/16 02:05:48;;;;;;;3.92;3.60;;;15.30;81.40;;;;;;4992465;28;20200;-74
2021/09/16 02:08:14;;;;;;;4.13;3.40;;;15.30;81.40;;;;;;4987858;28;20192;-74
2021/09/16 02:10:40;;;;;;;4.13;3.50;;;15.30;81.50;;;;;;4987976;28;20262;-73
2021/09/16 02:13:05;;;;;;;3.92;3.60;;;15.30;81.60;;;;;;4991497;28;20189;-74
2021/09/16 02:15:31;;;;;;;3.58;3.30;;;15.30;81.60;;;;;;4990837;28;20291;-72
2021/09/16 02:17:57;;;;;;;4.07;3.60;;;15.30;81.80;;;;;;4992436;28;20194;-74
2021/09/16 02:20:23;;;;;;;3.53;3.33;;;15.30;81.80;;;;;;4988080;28;20895;-73
2021/09/16 02:22:48;;;;;;;3.53;3.22;;;15.20;81.50;;;;;;4988542;28;20189;-74
2021/09/16 02:25:14;;;;;;;4.18;3.63;;;15.20;81.40;;;;;;4997149;28;20697;-75
2021/09/16 02:27:40;;;;;;;4.57;3.80;;;15.20;81.30;;;;;;4991665;28;20553;-75
2021/09/16 02:30:06;;;;;;;4.07;3.78;;;15.20;81.40;;;;;;4989144;28;20193;-75
2021/09/16 02:32:33;;;;;;;3.42;3.13;;;15.20;81.40;;;;;;4998137;28;20187;-76
2021/09/16 02:34:58;;;;;;;3.65;3.45;;;15.10;81.30;;;;;;5022734;28;20243;-76
2021/09/16 02:37:24;;;;;;;3.65;3.45;;;15.10;81.60;;;;;;4995945;28;20185;-77
2021/09/16 02:39:50;;;;;;;6.22;3.67;;;15.10;81.50;;;;;;4994351;28;20213;-77
2021/09/16 02:42:16;;;;;;;3.60;3.40;;;15.10;81.60;;;;;;4994482;28;20185;-76
2021/09/16 02:44:42;;;;;;;3.70;3.38;;;15.10;81.50;;;;;;4996994;28;20190;-76
2021/09/16 02:47:08;;;;;;;3.92;3.63;;;15.10;82.10;;;;;;4999318;28;20189;-77
2021/09/16 02:49:33;;;;;;;5.32;3.97;;;15.00;81.90;;;;;;4991941;28;20193;-77
2021/09/16 02:51:59;;;;;;;3.47;3.28;;;15.00;81.90;;;;;;4999366;28;20857;-77
2021/09/16 02:54:25;;;;;;;8.95;3.50;;;15.00;82.10;;;;;;4993567;28;20578;-77
2021/09/16 02:56:50;;;;;;;4.05;3.75;;;15.00;81.90;;;;;;4997047;28;21711;-76
2021/09/16 02:59:17;;;;;;;3.70;3.30;;;15.00;82.30;;;;;;4995951;28;20244;-77
2021/09/16 03:01:42;;;;;;;4.32;3.92;;;15.00;82.60;;;;;;4989954;28;20574;-77
2021/09/16 03:04:08;;;;;;;4.50;3.33;;;14.90;82.50;;;;;;4997656;28;20178;-77
2021/09/16 03:06:35;;;;;;;4.65;4.25;;;14.90;82.50;;;;;;4994476;28;20181;-77
2021/09/16 03:09:02;;;;;;;6.57;4.40;;;14.90;82.80;;;;;;4994661;28;20263;-77
2021/09/16 03:11:28;;;;;;;3.60;3.35;;;14.90;82.90;;;;;;4997023;28;20254;-77
2021/09/16 03:13:53;;;;;;;4.63;4.28;;;14.90;83.10;;;;;;4984032;28;20660;-77
2021/09/16 03:16:19;;;;;;;3.72;3.53;;;14.80;83.20;;;;;;4995710;28;20225;-77
2021/09/16 03:18:45;;;;;;;3.88;3.60;;;14.70;83.20;;;;;;4995866;28;20217;-77
2021/09/16 03:21:10;;;;;;;3.95;3.75;;;14.70;83.30;;;;;;4993604;28;20186;-77
2021/09/16 03:23:36;;;;;;;3.80;3.55;;;14.70;83.20;;;;;;4992697;28;20185;-77
2021/09/16 03:26:03;;;;;;;3.67;3.47;;;14.70;83.20;;;;;;4994907;28;20666;-76
2021/09/16 03:28:29;;;;;;;4.25;3.85;;;14.70;83.20;;;;;;4997331;28;20190;-76
2021/09/16 03:30:54;;;;;;;3.58;3.38;;;14.60;83.40;;;;;;4994981;28;20197;-76
2021/09/16 03:33:20;;;;;;;4.32;3.92;;;14.60;83.30;;;;;;4993121;28;20200;-76
2021/09/16 03:35:45;;;;;;;3.45;3.05;;;14.60;83.20;;;;;;4994342;28;20225;-76
2021/09/16 03:38:11;;;;;;;4.05;3.33;;;14.60;83.30;;;;;;4994202;28;20572;-75
2021/09/16 03:40:37;;;;;;;3.25;3.15;;;14.60;83.00;;;;;;4991293;28;20192;-75
2021/09/16 03:43:02;;;;;;;4.00;3.70;;;14.60;83.20;;;;;;4993347;28;20182;-76
2021/09/16 03:45:28;;;;;;;3.85;3.63;;;14.60;83.10;;;;;;5001617;28;20315;-75
2021/09/16 03:47:54;;;;;;;4.18;3.88;;;14.60;83.10;;;;;;5001591;28;20185;-76
2021/09/16 03:50:20;;;;;;;4.07;3.78;;;14.60;83.40;;;;;;4994292;28;20185;-76
2021/09/16 03:52:45;;;;;;;3.42;3.13;;;14.50;83.70;;;;;;4991370;28;20186;-77
2021/09/16 03:55:11;;;;;;;3.72;3.50;;;14.50;83.90;;;;;;5000640;28;20217;-77
2021/09/16 03:57:37;;;;;;;3.97;3.65;;;14.50;83.70;;;;;;4999063;28;20193;-77
2021/09/16 04:00:06;;;;;;;3.30;3.08;;;14.40;83.60;;;;;;4992797;28;20193;-77
2021/09/16 04:02:32;;;;;;;5.15;3.28;;;14.40;83.50;;;;;;4994166;28;20190;-76
2021/09/16 04:04:58;;;;;;;5.03;3.58;;;14.40;83.60;;;;;;4997861;28;20184;-75
2021/09/16 04:07:23;;;;;;;3.78;3.58;;;14.40;83.60;;;;;;4988487;28;20235;-75
2021/09/16 04:09:49;;;;;;;3.65;3.45;;;14.40;83.40;;;;;;4981678;28;20630;-76
2021/09/16 04:12:15;;;;;;;3.55;3.35;;;14.40;83.40;;;;;;4993231;28;20244;-74
2021/09/16 04:14:40;;;;;;;3.80;3.58;;;14.40;83.50;;;;;;4991056;28;20612;-76
2021/09/16 04:17:06;;;;;;;3.80;3.50;;;14.30;83.50;;;;;;4987969;28;20221;-76
2021/09/16 04:19:32;;;;;;;4.03;3.38;;;14.30;83.40;;;;;;4993833;28;20194;-76
2021/09/16 04:21:57;;;;;;;3.58;3.38;;;14.30;83.40;;;;;;4992633;28;20189;-76
2021/09/16 04:24:23;;;;;;;3.85;3.55;;;14.30;83.60;;;;;;4992268;28;20213;-75
2021/09/16 04:26:49;;;;;;;4.00;3.08;;;14.30;83.70;;;;;;4995618;28;20243;-75
2021/09/16 04:29:15;;;;;;;5.00;3.65;;;14.30;83.90;;;;;;4990190;28;20181;-76
2021/09/16 04:31:41;;;;;;;4.28;3.65;;;14.30;83.90;;;;;;4996250;28;20185;-76
2021/09/16 04:34:07;;;;;;;4.07;3.70;;;14.30;84.10;;;;;;4999426;28;20177;-76
2021/09/16 04:36:34;;;;;;;4.30;4.00;;;14.30;83.90;;;;;;4996002;28;20227;-75
2021/09/16 04:38:59;;;;;;;6.72;4.00;;;14.30;83.80;;;;;;4990474;28;20252;-75
2021/09/16 04:41:25;;;;;;;3.95;3.75;;;14.30;83.90;;;;;;4995628;28;20648;-73
2021/09/16 04:43:51;;;;;;;4.30;3.78;;;14.30;83.70;;;;;;4992395;28;20589;-73
2021/09/16 04:46:16;;;;;;;4.35;4.05;;;14.40;83.80;;;;;;4989317;28;20197;-72
2021/09/16 04:48:42;;;;;;;4.68;3.80;;;14.40;83.90;;;;;;4987512;28;20181;-73
2021/09/16 04:51:08;;;;;;;4.90;4.38;;;14.40;83.80;;;;;;4984114;28;20194;-77
2021/09/16 04:53:34;;;;;;;4.95;4.30;;;14.50;83.90;;;;;;4991391;28;20264;-76
2021/09/16 04:55:59;;;;;;;5.40;4.47;;;14.50;84.20;;;;;;4992410;28;20356;-77
2021/09/16 04:58:25;;;;;;;5.75;4.70;;;14.50;84.30;;;;;;4992705;28;20268;-77
2021/09/16 05:00:51;;;;;;;5.50;4.97;;;14.40;84.10;;;;;;4990337;28;20264;-78
2021/09/16 05:03:16;;;;;;;5.82;4.32;;;14.50;83.80;;;;;;4998980;28;20615;-77
2021/09/16 05:05:42;;;;;;;4.80;4.50;;;14.50;83.80;;;;;;4992018;28;20188;-80
2021/09/16 05:08:08;;;;;;;6.30;4.28;;;14.50;83.70;;;;;;4992513;28;20203;-78
2021/09/16 05:10:33;;;;;;;4.15;3.53;;;14.60;83.60;;;;;;4992011;28;20275;-76
2021/09/16 05:12:59;;;;;;;7.68;4.53;;;14.60;83.50;;;;;;4992596;28;21017;-76
2021/09/16 05:15:25;;;;;;;4.57;4.22;;;14.70;83.60;;;;;;4991482;28;20228;-75
2021/09/16 05:17:51;;;;;;;4.63;4.22;;;14.70;83.60;;;;;;4990221;28;20692;-81
2021/09/16 05:20:16;;;;;;;5.15;3.72;;;14.70;83.50;;;;;;4992132;28;20683;-81
2021/09/16 05:22:42;;;;;;;6.05;4.50;;;14.70;83.80;;;;;;4997803;28;20185;-81
2021/09/16 05:25:08;;;;;;;4.90;4.50;;;14.80;83.60;;;;;;4991819;28;20193;-82
2021/09/16 05:27:34;;;;;;;8.27;4.47;;;14.80;83.90;;;;;;4994434;28;20181;-81
2021/09/16 05:30:00;;;;;;;5.40;5.00;;;14.90;83.70;;;;;;4998255;28;20268;-81
2021/09/16 05:32:27;;;;;;;5.00;4.60;;;14.90;84.10;;;;;;4997143;28;20189;-81
2021/09/16 05:34:54;;;;;;;5.07;4.68;;;14.90;83.50;;;;;;4997129;28;20251;-78
2021/09/16 05:37:21;;;;;;;4.20;3.90;;;14.90;83.30;;;;;;4990427;28;20255;-76
2021/09/16 05:39:47;;;;;;;5.00;4.63;;;15.00;83.30;;;;;;4989384;28;20585;-79
2021/09/16 05:42:13;;;;;;;5.47;4.97;;;15.10;83.40;;;;;;4989837;28;20188;-79
2021/09/16 05:44:39;;;;;;;6.43;5.20;;;15.10;83.40;;;;;;4989795;28;20182;-79
2021/09/16 05:47:05;;;;;;;4.45;4.15;;;15.10;83.10;;;;;;4980860;28;20958;-80
2021/09/16 05:49:30;;;;;;;6.18;5.07;;;15.20;82.90;;;;;;4988998;28;20228;-79
2021/09/16 05:51:56;;;;;;;5.97;5.38;;;15.30;82.70;;;;;;4983278;28;20655;-79
2021/09/16 05:54:22;;;;;;;5.40;4.90;;;15.30;83.40;;;;;;4990408;28;20634;-79
2021/09/16 05:56:48;;;;;;;6.53;4.88;;;15.40;82.60;;;;;;4994579;28;20320;-79
2021/09/16 05:59:15;;;;;;;10.07;5.35;;;15.40;82.60;;;;;;4992482;28;20651;-79
2021/09/16 06:01:40;;;;;;;9.02;4.93;;;15.50;82.40;;;;;;4996122;28;20244;-79
2021/09/16 06:04:06;;;;;;;7.30;4.78;;;15.50;82.40;;;;;;4989127;28;20628;-79
2021/09/16 06:06:32;;;;;;;7.18;5.20;;;15.60;82.50;;;;;;4994965;28;20272;-77
2021/09/16 06:08:58;;;;;;;10.35;5.55;;;15.70;82.50;;;;;;4991891;28;20267;-79
2021/09/16 06:11:25;;;;;;;5.90;4.97;;;15.70;82.10;;;;;;4993664;28;20266;-79
2021/09/16 06:13:54;;;;;;;5.43;4.93;;;15.80;82.00;;;;;;4991453;28;20204;-78
2021/09/16 06:16:21;;;;;;;6.40;5.18;;;15.80;82.00;;;;;;4996472;28;20301;-80
2021/09/16 06:18:47;;;;;;;8.00;5.43;;;15.90;81.70;;;;;;4995906;28;20209;-80
2021/09/16 06:21:12;;;;;;;8.98;5.40;;;16.00;81.70;;;;;;4998089;28;20219;-80
2021/09/16 06:23:38;;;;;;;7.10;5.90;;;16.10;81.70;;;;;;4993725;28;20190;-80
2021/09/16 06:26:04;;;;;;;8.38;5.85;;;16.20;81.50;;;;;;5001665;28;20185;-78
2021/09/16 06:28:30;;;;;;;10.20;7.28;;;16.30;81.30;;;;;;4991831;28;20189;-80
2021/09/16 06:30:56;;;;;;;8.48;5.82;;;16.30;80.90;;;;;;4991946;28;20190;-79
2021/09/16 06:33:21;;;;;;;9.00;5.97;;;16.40;80.70;;;;;;4992079;28;20201;-80
2021/09/16 06:35:47;;;;;;;14.48;7.63;;;16.50;80.50;;;;;;4990720;28;20757;-80
2021/09/16 06:38:13;;;;;;;21.58;7.20;;;16.50;80.30;;;;;;4988924;28;20257;-80
2021/09/16 06:40:39;;;;;;;8.90;6.90;;;16.60;80.10;;;;;;4991767;28;20239;-80
2021/09/16 06:43:04;;;;;;;8.13;6.88;;;16.70;79.80;;;;;;5025259;28;20181;-80
2021/09/16 06:45:30;;;;;;;9.82;6.82;;;16.80;79.70;;;;;;4990130;28;20242;-79
2021/09/16 06:47:57;;;;;;;7.22;6.35;;;16.80;79.70;;;;;;4990919;28;20185;-80
2021/09/16 06:50:23;;;;;;;7.25;6.53;;;16.90;80.50;;;;;;4992065;28;20272;-80
2021/09/16 06:52:49;;;;;;;9.07;6.88;;;17.00;79.80;;;;;;4997999;28;20276;-80
2021/09/16 06:55:14;;;;;;;7.53;6.82;;;17.10;79.90;;;;;;4991538;28;20217;-77
2021/09/16 06:57:40;;;;;;;10.15;7.13;;;17.20;79.60;;;;;;4995667;28;20284;-77
2021/09/16 07:00:07;;;;;;;9.57;7.00;;;17.30;79.30;;;;;;5023601;28;20185;-77
2021/09/16 07:02:34;;;;;;;8.63;7.70;;;17.40;79.20;;;;;;4995283;28;20541;-78
2021/09/16 07:05:00;;;;;;;9.25;7.38;;;17.40;78.90;;;;;;4989944;28;20178;-76
2021/09/16 07:07:26;;;;;;;9.07;7.68;;;17.50;78.60;;;;;;5000666;28;20181;-77
2021/09/16 07:09:52;;;;;;;9.65;7.75;;;17.60;78.60;;;;;;4990257;28;21419;-77
2021/09/16 07:12:17;;;;;;;8.95;7.30;;;17.70;78.30;;;;;;4987677;28;20200;-77
2021/09/16 07:14:44;;;;;;;7.45;6.38;;;17.80;78.50;;;;;;4991501;28;20753;-77
2021/09/16 07:17:10;;;;;;;7.70;6.80;;;17.90;77.70;;;;;;4991522;28;20228;-77
2021/09/16 07:19:36;;;;;;;7.30;6.50;;;18.00;77.00;;;;;;4988187;28;20185;-77
2021/09/16 07:22:02;;;;;;;6.40;5.75;;;18.10;78.00;;;;;;4988349;28;20190;-78
2021/09/16 07:24:28;;;;;;;10.88;6.22;;;18.10;76.80;;;;;;4993610;28;20240;-77
2021/09/16 07:26:54;;;;;;;11.20;6.60;;;18.20;76.90;;;;;;4994095;28;20227;-78
2021/09/16 07:29:22;;;;;;;7.03;5.70;;;18.30;77.00;;;;;;4992620;28;20185;-77
2021/09/16 07:31:49;;;;;;;7.03;6.40;;;18.40;76.90;;;;;;4993055;28;20663;-80
2021/09/16 07:34:16;;;;;;;7.88;6.13;;;18.50;76.70;;;;;;4990943;28;20185;-81
2021/09/16 07:36:45;;;;;;;7.32;6.43;;;18.60;76.60;;;;;;4993641;28;20213;-80
2021/09/16 07:39:16;;;;;;;6.72;6.03;;;18.80;76.20;;;;;;4992567;28;20190;-80
2021/09/16 07:41:42;;;;;;;5.93;5.38;;;18.90;75.40;;;;;;4992838;28;20173;-80
2021/09/16 07:44:08;;;;;;;11.32;5.68;;;19.00;75.60;;;;;;4989550;28;20256;-80
2021/09/16 07:46:35;;;;;;;6.47;5.90;;;19.10;75.40;;;;;;4992882;28;20189;-80
2021/09/16 07:49:01;;;;;;;6.75;6.07;;;19.40;75.10;;;;;;4992517;28;20180;-80
2021/09/16 07:51:27;;;;;;;13.23;5.68;;;19.40;75.10;;;;;;4988629;28;20276;-80
2021/09/16 07:53:52;;;;;;;11.60;6.53;;;19.50;74.70;;;;;;4989776;28;20764;-80
2021/09/16 07:56:21;;;;;;;8.30;6.57;;;19.70;74.20;;;;;;4989220;28;20287;-80
2021/09/16 07:58:48;;;;;;;11.95;6.45;;;19.80;73.40;;;;;;4990199;28;20201;-80
2021/09/16 08:01:14;;;;;;;7.97;6.00;;;19.90;73.20;;;;;;4988921;28;20256;-79
2021/09/16 08:03:40;;;;;;;10.85;7.22;;;20.20;73.00;;;;;;4996617;28;20280;-81
2021/09/16 08:06:06;;;;;;;14.20;7.88;;;20.30;72.20;;;;;;4992068;28;20196;-81
2021/09/16 08:08:32;;;;;;;8.93;7.45;;;20.40;71.90;;;;;;4990518;28;20177;-81
2021/09/16 08:10:58;;;;;;;8.70;7.50;;;20.70;71.60;;;;;;4988915;28;20263;-81
2021/09/16 08:13:24;;;;;;;12.57;6.75;;;20.90;70.60;;;;;;4989818;28;20276;-80
2021/09/16 08:15:51;;;;;;;9.05;8.00;;;21.20;70.30;;;;;;4987471;28;20223;-80
2021/09/16 08:18:18;;;;;;;8.32;7.32;;;21.60;70.10;;;;;;4993230;28;20185;-80
2021/09/16 08:20:48;;;;;;;9.70;7.13;;;22.00;68.10;;;;;;4988619;28;20194;-81
2021/09/16 08:23:14;;;;;;;11.05;7.43;;;23.10;67.20;;;;;;4994641;28;20293;-81
2021/09/16 08:25:40;;;;;;;9.75;7.40;;;23.80;65.70;;;;;;4988894;28;20200;-79
2021/09/16 08:28:06;;;;;;;7.88;7.15;;;;;;;;;;4989108;28;20591;-81
2021/09/16 08:30:32;;;;;;;12.45;8.63;;;24.40;64.70;;;;;;4984759;28;20189;-80
2021/09/16 08:32:58;;;;;;;11.55;7.80;;;25.10;63.60;;;;;;4988350;28;20252;-80
2021/09/16 08:35:24;;;;;;;8.13;7.32;;;25.70;62.70;;;;;;4990882;28;20219;-80
2021/09/16 08:37:50;;;;;;;8.38;6.28;;;26.40;60.70;;;;;;4991595;28;20189;-80
2021/09/16 08:40:16;;;;;;;14.10;7.53;;;27.20;60.30;;;;;;4989788;28;20189;-80
2021/09/16 08:42:43;;;;;;;8.88;8.05;;;28.00;58.70;;;;;;4990777;28;20674;-80
2021/09/16 08:45:15;;;;;;;10.93;7.45;;;28.80;56.90;;;;;;4988828;28;20721;-80
2021/09/16 08:47:42;;;;;;;11.35;6.55;;;29.40;56.50;;;;;;4993209;28;20194;-81
2021/09/16 08:50:09;;;;;;;9.73;7.15;;;30.20;55.90;;;;;;4992495;28;20189;-80
2021/09/16 08:52:41;;;;;;;10.63;6.15;;;30.90;54.80;;;;;;4988902;28;20563;-81
2021/09/16 08:55:09;;;;;;;9.27;6.55;;;31.60;53.60;;;;;;4988339;28;20181;-81
2021/09/16 08:57:37;;;;;;;5.88;5.50;;;32.30;51.70;;;;;;5021543;28;20189;-79
2021/09/16 09:00:16;;;;;;;8.57;6.03;;;32.90;51.60;;;;;;4999456;28;20189;-79
2021/09/16 09:02:45;;;;;;;7.28;6.63;;;33.50;50.70;;;;;;4987384;28;20195;-79
2021/09/16 09:05:11;;;;;;;6.82;6.22;;;34.00;50.80;;;;;;4986218;28;20186;-79
2021/09/16 09:07:45;;;;;;;7.47;6.80;;;34.50;49.40;;;;;;5021818;28;20185;-79
2021/09/16 09:10:40;;;;;;;7.70;6.45;;;35.30;48.20;;;;;;4985147;28;20220;-80
2021/09/16 09:13:13;;;;;;;10.95;6.07;;;35.50;48.10;;;;;;4988716;28;20198;-78
2021/09/16 09:15:41;;;;;;;14.05;7.95;;;36.40;46.70;;;;;;4986093;28;20205;-79
2021/09/16 09:18:14;;;;;;;14.43;6.68;;;36.60;45.60;;;;;;4986476;28;20221;-76
2021/09/16 09:21:08;;;;;;;8.13;5.97;;;36.70;47.50;;;;;;4993535;28;20184;-76
2021/09/16 09:23:54;;;;;;;7.18;6.68;;;37.00;46.40;;;;;;4986625;28;20445;-77
2021/09/16 09:26:28;;;;;;;6.90;5.45;;;37.30;46.60;;;;;;5019594;28;20192;-78
2021/09/16 09:29:08;;;;;;;9.25;7.15;;;37.50;46.70;;;;;;4981108;28;20192;-77
2021/09/16 09:31:56;;;;;;;8.25;5.57;;;37.80;46.50;;;;;;4985624;28;20354;-75
2021/09/16 09:34:33;;;;;;;7.30;5.90;;;38.10;45.10;;;;;;4994970;28;20192;-77
2021/09/16 09:37:09;;;;;;;8.63;6.28;;;38.40;45.20;;;;;;4991730;28;20225;-77
2021/09/16 09:40:13;;;;;;;8.93;6.07;;;38.80;44.30;;;;;;4985546;28;20177;-82
2021/09/16 09:42:39;;;;;;;7.68;6.18;;;38.90;45.90;;;;;;4954692;28;20227;-80
2021/09/16 09:45:08;;;;;;;7.85;6.30;;;39.30;45.70;;;;;;4970543;28;20201;-80
2021/09/16 09:47:37;;;;;;;6.30;5.95;;;39.70;45.30;;;;;;4972282;28;20636;-80
2021/09/16 09:50:14;;;;;;;6.13;5.63;;;40.10;44.90;;;;;;4971559;28;20932;-80
2021/09/16 09:52:40;;;;;;;6.47;5.78;;;40.50;45.00;;;;;;4973906;28;20192;-80
2021/09/16 09:55:18;;;;;;;6.95;6.40;;;41.00;44.60;;;;;;4971311;28;20236;-78
2021/09/16 09:57:44;;;;;;;6.25;5.70;;;41.40;43.50;;;;;;4973301;28;20227;-82
2021/09/16 10:00:15;;;;;;;7.63;6.22;;;41.80;43.40;;;;;;4973818;28;20205;-80
2021/09/16 10:02:41;;;;;;;5.93;5.32;;;42.20;43.50;;;;;;4975011;28;20188;-79
2021/09/16 10:05:22;;;;;;;7.10;6.22;;;42.50;42.70;;;;;;4975532;28;20911;-79
2021/09/16 10:07:49;;;;;;;10.00;5.82;;;42.80;41.50;;;;;;4971940;28;20185;-74
2021/09/16 10:10:15;;;;;;;6.88;6.28;;;43.10;41.90;;;;;;4968670;28;20185;-77
2021/09/16 10:12:44;;;;;;;6.65;6.10;;;43.10;41.40;;;;;;4958108;28;20228;-82
2021/09/16 10:15:14;;;;;;;8.18;6.30;;;43.10;41.50;;;;;;4969837;28;20644;-79
2021/09/16 10:17:40;;;;;;;5.55;5.05;;;43.30;41.60;;;;;;4975972;28;20309;-80
2021/09/16 10:20:08;;;;;;;5.53;5.20;;;43.40;41.80;;;;;;4981298;28;20189;-80
2021/09/16 10:22:35;;;;;;;5.35;4.97;;;43.70;41.40;;;;;;4990447;28;20195;-78
2021/09/16 10:25:03;;;;;;;5.95;5.07;;;43.80;39.60;;;;;;4986585;28;20181;-81
2021/09/16 10:27:36;;;;;;;7.68;5.53;;;43.60;41.00;;;;;;4990663;28;20185;-80
2021/09/16 10:30:30;;;;;;;6.15;5.68;;;43.70;40.10;;;;;;4990656;28;20181;-81
2021/09/16 10:33:24;;;;;;;5.00;4.70;;;43.50;38.40;;;;;;4994043;28;20259;-80
2021/09/16 10:35:59;;;;;;;5.53;5.05;;;43.20;38.60;;;;;;4986983;28;20224;-80
2021/09/16 10:38:28;;;;;;;5.88;5.32;;;43.30;41.80;;;;;;4987335;28;20257;-80
2021/09/16 10:41:25;;;;;;;5.82;5.40;;;43.30;41.80;;;;;;4985202;28;20193;-81
2021/09/16 10:43:59;;;;;;;6.95;5.40;;;44.10;41.00;;;;;;4991064;28;20292;-79
2021/09/16 10:46:31;;;;;;;5.07;4.72;;;44.10;41.00;;;;;;4984908;28;20245;-81
2021/09/16 10:49:17;;;;;;;5.55;4.57;;;44.40;38.30;;;;;;4987248;28;20173;-81
2021/09/16 10:51:44;;;;;;;4.75;4.38;;;44.60;39.90;;;;;;4987042;28;20193;-80
2021/09/16 10:54:28;;;;;;;5.82;4.97;;;44.80;39.20;;;;;;4991814;28;20189;-78
2021/09/16 10:57:05;;;;;;;5.28;4.78;;;44.50;37.10;;;;;;4989226;28;20271;-79
2021/09/16 10:59:50;;;;;;;4.68;4.43;;;44.60;37.80;;;;;;4996105;28;20184;-79
2021/09/16 11:02:31;;;;;;;4.32;4.00;;;44.80;37.20;;;;;;4992407;28;20239;-79
2021/09/16 11:04:59;;;;;;;4.60;4.22;;;45.10;37.40;;;;;;4993529;28;20181;-78
2021/09/16 11:07:35;;;;;;;6.18;4.13;;;45.20;38.60;;;;;;4991721;28;20275;-79
2021/09/16 11:10:16;;;;;;;3.85;3.53;;;45.30;36.50;;;;;;5027301;28;20195;-80
2021/09/16 11:12:41;;;;;;;3.70;3.58;;;45.30;35.90;;;;;;4991706;28;20181;-79
2021/09/16 11:15:10;;;;;;;3.63;3.50;;;45.20;37.70;;;;;;4989370;28;20670;-80
2021/09/16 11:17:36;;;;;;;4.32;4.00;;;44.50;37.30;;;;;;4988048;28;20284;-79
2021/09/16 11:20:03;;;;;;;3.78;3.67;;;43.60;36.60;;;;;;4990526;28;20199;-79
2021/09/16 11:22:29;;;;;;;3.63;3.45;;;43.00;37.80;;;;;;4992043;28;20641;-79
2021/09/16 11:24:56;;;;;;;4.72;4.13;;;42.60;37.80;;;;;;4994651;28;20256;-79
2021/09/16 11:27:25;;;;;;;4.05;3.67;;;42.10;37.70;;;;;;4994582;28;20200;-78
2021/09/16 11:29:51;;;;;;;3.85;3.55;;;41.60;39.10;;;;;;4986120;28;20174;-81
2021/09/16 11:32:18;;;;;;;3.78;3.58;;;41.60;38.20;;;;;;4989242;28;20188;-80
2021/09/16 11:34:54;;;;;;;4.60;4.30;;;41.60;37.90;;;;;;4988287;28;20647;-81
2021/09/16 11:37:22;;;;;;;4.07;3.30;;;41.60;38.00;;;;;;4990311;28;20224;-79
2021/09/16 11:40:05;;;;;;;3.40;3.30;;;41.50;39.70;;;;;;4990441;28;20193;-80
2021/09/16 11:42:33;;;;;;;4.82;4.45;;;41.60;38.10;;;;;;4988546;28;20193;-80
2021/09/16 11:45:08;;;;;;;3.90;3.72;;;41.60;39.60;;;;;;4993608;28;20185;-80
2021/09/16 11:47:42;;;;;;;3.38;3.28;;;41.60;37.90;;;;;;4995605;28;20851;-79
2021/09/16 11:50:19;;;;;;;3.75;3.45;;;41.60;38.40;;;;;;4990247;28;20177;-81
2021/09/16 11:52:45;;;;;;;3.47;3.28;;;41.90;38.70;;;;;;4990728;28;20253;-81
2021/09/16 11:55:16;;;;;;;6.57;3.58;;;42.30;37.30;;;;;;4994378;28;20292;-78
2021/09/16 11:58:02;;;;;;;3.63;3.13;;;42.60;37.50;;;;;;4990563;28;20643;-81
2021/09/16 12:00:28;;;;;;;3.15;3.10;;;43.00;37.20;;;;;;4991888;28;20565;-81
2021/09/16 12:02:54;;;;;;;2.63;2.55;;;43.60;37.50;;;;;;4992108;28;20187;-81
2021/09/16 12:05:35;;;;;;;3.58;3.45;;;44.00;37.40;;;;;;4989953;28;20192;-82
2021/09/16 12:08:02;;;;;;;3.15;3.05;;;44.30;35.50;;;;;;4988523;28;20686;-81
2021/09/16 12:10:43;;;;;;;3.08;2.95;;;44.50;37.30;;;;;;4992656;28;20287;-81
2021/09/16 12:13:13;;;;;;;3.13;3.08;;;44.40;35.30;;;;;;4992602;28;20181;-81
2021/09/16 12:15:39;;;;;;;3.67;3.50;;;44.70;36.90;;;;;;4996262;28;20239;-81
2021/09/16 12:18:06;;;;;;;4.97;2.85;;;45.00;36.50;;;;;;4988424;28;20742;-81
2021/09/16 12:20:33;;;;;;;3.10;3.00;;;45.10;36.10;;;;;;4991961;28;20187;-81
2021/09/16 12:22:59;;;;;;;2.70;2.60;;;44.80;37.00;;;;;;4988504;28;20208;-82
2021/09/16 12:25:26;;;;;;;2.58;2.58;;;44.50;36.00;;;;;;4993257;28;20208;-79
2021/09/16 12:28:06;;;;;;;3.53;3.22;;;44.40;35.20;;;;;;4988081;28;20209;-81
2021/09/16 12:30:36;;;;;;;3.28;3.25;;;44.50;35.60;;;;;;4998176;28;20172;-81
2021/09/16 12:33:23;;;;;;;3.40;3.13;;;44.70;35.40;;;;;;4992586;28;20185;-81
2021/09/16 12:36:09;;;;;;;2.90;2.80;;;45.00;36.20;;;;;;4992844;28;20216;-81
2021/09/16 12:38:59;;;;;;;3.28;3.25;;;45.30;34.80;;;;;;4992689;28;20816;-81
2021/09/16 12:41:27;;;;;;;2.88;2.67;;;45.60;35.30;;;;;;4994568;28;20211;-81
2021/09/16 12:44:05;;;;;;;3.08;2.97;;;45.80;35.60;;;;;;4992106;28;20213;-81
2021/09/16 12:46:51;;;;;;;2.65;2.58;;;45.80;36.00;;;;;;4995488;28;20185;-81
2021/09/16 12:49:29;;;;;;;3.40;3.30;;;46.00;33.90;;;;;;4989253;28;20184;-80
2021/09/16 12:52:02;;;;;;;3.13;3.00;;;46.10;34.30;;;;;;4991112;28;20275;-81